Time;durP1;ratioP1;P1;durP2;ratioP2;P2;SDS_P1;SDS_P2;PMS_P1;PMS_P2;Temp;Humidity;BMP_temperature;BMP_pressure;BME280_temperature;BME280_humidity;BME280_pressure;Samples;Min_cycle;Max_cycle;Signal;HPM_P1;HPM_P2
2022/05/25 00:01:33;;;;;;;0.30;0.20;;;20.90;56.90;;;;;;4974705;28;20051;-14
2022/05/25 00:04:00;;;;;;;0.20;0.10;;;20.80;57.00;;;;;;4974689;28;20068;-16
2022/05/25 00:06:26;;;;;;;0.15;0.10;;;20.80;57.00;;;;;;4975437;28;20504;-15
2022/05/25 00:08:51;;;;;;;0.30;0.30;;;20.80;57.00;;;;;;4973698;28;20408;-16
2022/05/25 00:11:17;;;;;;;0.30;0.20;;;20.80;57.10;;;;;;4974718;28;20058;-15
2022/05/25 00:13:42;;;;;;;0.40;0.20;;;20.80;57.40;;;;;;4973162;28;20042;-16
2022/05/25 00:16:08;;;;;;;0.22;0.20;;;20.80;57.00;;;;;;4984974;28;20049;-15
2022/05/25 00:18:34;;;;;;;0.10;0.10;;;20.80;57.00;;;;;;4977771;28;20053;-15
2022/05/25 00:21:00;;;;;;;0.20;0.13;;;20.80;57.00;;;;;;4975855;28;20059;-15
2022/05/25 00:23:26;;;;;;;0.40;0.30;;;20.80;57.10;;;;;;4971662;28;20051;-15
2022/05/25 00:25:51;;;;;;;0.20;0.10;;;20.80;57.10;;;;;;4973057;28;20595;-15
2022/05/25 00:28:17;;;;;;;0.10;0.10;;;20.80;57.00;;;;;;4972806;28;20530;-15
2022/05/25 00:30:44;;;;;;;0.13;0.10;;;20.80;57.00;;;;;;4974370;28;20046;-17
2022/05/25 00:33:09;;;;;;;0.03;0.03;;;20.80;57.10;;;;;;4976208;28;20047;-15
2022/05/25 00:35:37;;;;;;;0.10;0.10;;;20.80;57.10;;;;;;4974865;28;20061;-16
2022/05/25 00:38:03;;;;;;;0.10;0.10;;;20.80;57.10;;;;;;4978258;28;20074;-17
2022/05/25 00:40:41;;;;;;;0.32;0.20;;;20.80;57.10;;;;;;4977212;28;20455;-16
2022/05/25 00:43:06;;;;;;;0.20;0.20;;;20.80;57.10;;;;;;4976954;28;20137;-15
2022/05/25 00:45:35;;;;;;;0.20;0.20;;;20.80;57.40;;;;;;4977676;28;20093;-16
2022/05/25 00:48:01;;;;;;;0.43;0.20;;;20.80;57.20;;;;;;4976317;28;20050;-15
2022/05/25 00:51:11;;;;;;;0.10;0.10;;;20.70;57.30;;;;;;4993061;28;20043;-16
2022/05/25 00:53:12;;;;;;;0.20;0.20;;;20.80;57.10;;;;;;4977256;28;20046;-15
2022/05/25 00:55:38;;;;;;;0.28;0.10;;;20.70;57.50;;;;;;4975623;28;20046;-17
2022/05/25 00:58:03;;;;;;;0.32;0.20;;;20.70;57.40;;;;;;4976904;28;20047;-17
2022/05/25 01:00:29;;;;;;;0.30;0.20;;;20.70;57.20;;;;;;4973085;28;20174;-15
2022/05/25 01:03:01;;;;;;;0.30;0.20;;;20.60;57.40;;;;;;4971171;28;20057;-15
2022/05/25 01:05:34;;;;;;;0.65;0.20;;;20.60;57.50;;;;;;4976001;28;20515;-15
2022/05/25 01:08:18;;;;;;;0.30;0.25;;;20.60;57.50;;;;;;4959620;28;20057;-15
2022/05/25 01:11:26;;;;;;;0.13;0.13;;;20.60;57.40;;;;;;4977153;28;20042;-15
2022/05/25 01:14:12;;;;;;;0.20;0.20;;;20.60;57.50;;;;;;4965007;28;20113;-15
2022/05/25 01:17:01;;;;;;;0.63;0.22;;;20.60;57.20;;;;;;4975201;28;20540;-15
2022/05/25 01:19:44;;;;;;;0.22;0.22;;;20.60;57.30;;;;;;4975513;28;20077;-17
2022/05/25 01:22:27;;;;;;;0.20;0.10;;;20.60;57.20;;;;;;4991801;28;20511;-15
2022/05/25 01:25:24;;;;;;;0.70;0.35;;;20.60;57.40;;;;;;4976710;28;20051;-17
2022/05/25 01:27:50;;;;;;;0.20;0.10;;;20.60;57.30;;;;;;4962731;28;20523;-15
2022/05/25 01:30:43;;;;;;;1.00;0.10;;;20.60;57.40;;;;;;4975481;28;20408;-15
2022/05/25 01:33:19;;;;;;;0.30;0.30;;;20.60;57.20;;;;;;4963701;28;20052;-15
2022/05/25 01:35:52;;;;;;;0.28;0.20;;;20.60;57.30;;;;;;4975088;28;20034;-15
2022/05/25 01:38:26;;;;;;;0.20;0.20;;;20.50;57.40;;;;;;4972914;28;20054;-16
2022/05/25 01:41:11;;;;;;;0.20;0.20;;;20.50;57.10;;;;;;4975195;28;20039;-15
2022/05/25 01:43:44;;;;;;;0.20;0.20;;;20.50;57.20;;;;;;4970051;28;20043;-16
2022/05/25 01:46:59;;;;;;;0.30;0.17;;;20.60;57.20;;;;;;4956487;28;20043;-14
2022/05/25 01:49:32;;;;;;;0.32;0.20;;;20.50;57.20;;;;;;4966065;28;20108;-15
2022/05/25 01:52:00;;;;;;;0.20;0.20;;;20.50;57.00;;;;;;4974759;28;20116;-16
2022/05/25 01:54:30;;;;;;;0.20;0.20;;;20.50;57.10;;;;;;4974748;28;20078;-16
2022/05/25 01:56:56;;;;;;;0.20;0.20;;;20.50;57.10;;;;;;4990907;28;20042;-15
2022/05/25 01:59:22;;;;;;;0.47;0.20;;;20.50;57.10;;;;;;4974775;28;20043;-17
2022/05/25 02:04:46;;;;;;;0.13;0.10;;;20.50;57.00;;;;;;4994512;28;20064;-15
2022/05/25 02:07:18;;;;;;;0.20;0.20;;;20.50;57.10;;;;;;4975871;28;20576;-15
2022/05/25 02:09:50;;;;;;;0.32;0.20;;;20.50;57.10;;;;;;4974127;28;20539;-15
2022/05/25 02:12:39;;;;;;;0.20;0.10;;;20.50;57.10;;;;;;4976774;28;20047;-15
2022/05/25 02:15:15;;;;;;;0.10;0.10;;;20.50;57.10;;;;;;4974882;28;20043;-15
2022/05/25 02:17:47;;;;;;;0.13;0.10;;;20.50;57.10;;;;;;4974888;28;20081;-15
2022/05/25 02:20:25;;;;;;;0.10;0.10;;;20.50;57.20;;;;;;4975424;28;20094;-15
2022/05/25 02:22:56;;;;;;;0.40;0.30;;;20.50;57.00;;;;;;4974711;28;20050;-15
2022/05/25 02:25:30;;;;;;;0.20;0.20;;;20.50;57.10;;;;;;4959607;28;20047;-15
2022/05/25 02:28:00;;;;;;;0.20;0.20;;;20.50;57.00;;;;;;4975880;28;21544;-15
2022/05/25 02:30:26;;;;;;;0.30;0.30;;;20.50;57.60;;;;;;4958508;28;20053;-15
2022/05/25 02:33:02;;;;;;;0.17;0.10;;;20.50;57.00;;;;;;4958738;28;20077;-15
2022/05/25 02:35:27;;;;;;;0.50;0.50;;;20.50;57.00;;;;;;4974288;28;20070;-16
2022/05/25 02:37:53;;;;;;;0.20;0.20;;;20.50;57.00;;;;;;4974480;28;20046;-15
2022/05/25 02:40:19;;;;;;;0.20;0.20;;;20.50;57.00;;;;;;4975021;28;20046;-15
2022/05/25 02:42:45;;;;;;;0.32;0.30;;;20.50;57.00;;;;;;4957742;28;20039;-15
2022/05/25 02:45:11;;;;;;;0.40;0.10;;;20.50;56.90;;;;;;4975132;28;20061;-14
2022/05/25 02:47:37;;;;;;;0.47;0.38;;;20.50;57.00;;;;;;4975145;28;20547;-16
2022/05/25 02:50:04;;;;;;;0.25;0.20;;;20.50;57.00;;;;;;4974139;28;20497;-15
2022/05/25 02:52:29;;;;;;;1.73;0.17;;;20.50;57.10;;;;;;4976118;28;20049;-16
2022/05/25 02:54:55;;;;;;;0.20;0.20;;;20.50;57.20;;;;;;4974553;28;20121;-15
2022/05/25 02:57:21;;;;;;;0.20;0.20;;;20.40;56.90;;;;;;4975160;28;20122;-15
2022/05/25 02:59:47;;;;;;;0.10;0.10;;;20.40;56.90;;;;;;4975461;28;20039;-15
2022/05/25 03:02:12;;;;;;;0.20;0.20;;;20.50;57.00;;;;;;4976346;28;20049;-15
2022/05/25 03:04:40;;;;;;;0.25;0.20;;;20.50;57.00;;;;;;4978509;28;20126;-16
2022/05/25 03:07:05;;;;;;;0.17;0.10;;;20.50;57.10;;;;;;4979991;28;20073;-18
2022/05/25 03:09:31;;;;;;;0.30;0.20;;;20.50;57.00;;;;;;4978632;28;20054;-15
2022/05/25 03:11:57;;;;;;;0.20;0.20;;;20.40;57.00;;;;;;4979210;28;20181;-14
2022/05/25 03:14:22;;;;;;;0.28;0.20;;;20.40;56.90;;;;;;4979698;28;20043;-15
2022/05/25 03:16:48;;;;;;;0.40;0.10;;;20.40;57.10;;;;;;4979258;28;20094;-16
2022/05/25 03:19:14;;;;;;;1.30;0.20;;;20.50;57.70;;;;;;4978983;28;20054;-15
2022/05/25 03:21:39;;;;;;;0.17;0.17;;;20.50;57.00;;;;;;4979029;28;20057;-16
2022/05/25 03:24:06;;;;;;;0.20;0.10;;;20.50;57.10;;;;;;4978343;28;20411;-16
2022/05/25 03:26:31;;;;;;;0.40;0.28;;;20.40;57.00;;;;;;4979655;28;20408;-15
2022/05/25 03:28:57;;;;;;;0.15;0.10;;;20.40;57.00;;;;;;4977649;28;20046;-15
2022/05/25 03:31:24;;;;;;;0.32;0.32;;;20.40;56.90;;;;;;4979438;28;20055;-16
2022/05/25 03:33:49;;;;;;;0.17;0.10;;;20.40;56.90;;;;;;4978925;28;20047;-16
2022/05/25 03:36:15;;;;;;;0.80;0.20;;;20.40;57.00;;;;;;4978173;28;20046;-15
2022/05/25 03:38:40;;;;;;;0.40;0.20;;;20.40;57.50;;;;;;4978354;28;20423;-17
2022/05/25 03:41:06;;;;;;;0.30;0.30;;;20.40;57.00;;;;;;4979204;28;20511;-15
2022/05/25 03:43:33;;;;;;;0.30;0.10;;;20.40;57.00;;;;;;4979123;28;20039;-15
2022/05/25 03:45:58;;;;;;;0.17;0.17;;;20.40;57.10;;;;;;4960828;28;20121;-15
2022/05/25 03:48:24;;;;;;;0.22;0.10;;;20.40;57.20;;;;;;4979294;28;20031;-15
2022/05/25 03:50:50;;;;;;;0.28;0.13;;;20.40;57.30;;;;;;4977792;28;20500;-15
2022/05/25 03:53:15;;;;;;;0.50;0.20;;;20.40;57.30;;;;;;4979023;28;20054;-16
2022/05/25 03:55:42;;;;;;;0.30;0.15;;;20.40;57.40;;;;;;4977469;28;20524;-16
2022/05/25 03:58:08;;;;;;;0.20;0.20;;;20.40;57.30;;;;;;4978810;28;20050;-15
2022/05/25 04:00:33;;;;;;;0.50;0.10;;;20.40;57.20;;;;;;4979100;28;20043;-15
2022/05/25 04:03:02;;;;;;;0.30;0.20;;;20.40;57.20;;;;;;4977119;28;20105;-15
2022/05/25 04:05:28;;;;;;;0.40;0.20;;;20.40;57.10;;;;;;4977723;28;20070;-14
2022/05/25 04:07:58;;;;;;;0.47;0.17;;;20.40;57.20;;;;;;4976974;28;20127;-15
2022/05/25 04:10:24;;;;;;;0.90;0.20;;;20.40;57.10;;;;;;4978846;28;20054;-16
2022/05/25 04:12:50;;;;;;;0.35;0.22;;;20.30;57.00;;;;;;4977975;28;20468;-15
2022/05/25 04:15:17;;;;;;;0.20;0.10;;;20.40;57.00;;;;;;4976704;28;20125;-15
2022/05/25 04:17:43;;;;;;;0.30;0.22;;;20.30;57.10;;;;;;4977975;28;20043;-16
2022/05/25 04:20:09;;;;;;;0.30;0.28;;;20.30;57.00;;;;;;4978618;28;20043;-15
2022/05/25 04:22:35;;;;;;;0.57;0.20;;;20.30;57.00;;;;;;4977667;28;20575;-15
2022/05/25 04:25:07;;;;;;;0.10;0.10;;;20.30;57.10;;;;;;4977996;28;20051;-14
2022/05/25 04:27:33;;;;;;;0.30;0.30;;;20.30;57.00;;;;;;4977288;28;20058;-15
2022/05/25 04:29:59;;;;;;;0.15;0.15;;;20.30;57.10;;;;;;4977954;28;20050;-15
2022/05/25 04:32:24;;;;;;;0.10;0.10;;;20.30;56.90;;;;;;4978044;28;20046;-18
2022/05/25 04:34:50;;;;;;;0.40;0.20;;;20.30;57.10;;;;;;4977140;28;20055;-15
2022/05/25 04:40:00;;;;;;;;;;;20.30;56.90;;;;;;4978174;28;20050;-15
2022/05/25 04:42:29;;;;;;;0.30;0.22;;;20.30;57.10;;;;;;4978318;28;19914;-15
2022/05/25 04:45:00;;;;;;;0.30;0.10;;;20.30;57.00;;;;;;4977409;28;20034;-15
2022/05/25 04:47:30;;;;;;;0.20;0.10;;;20.30;57.60;;;;;;4977444;28;20058;-15
2022/05/25 04:49:56;;;;;;;0.32;0.32;;;20.30;57.00;;;;;;4976132;28;20073;-14
2022/05/25 04:52:22;;;;;;;0.10;0.10;;;20.30;57.10;;;;;;4992601;28;20047;-15
2022/05/25 04:54:47;;;;;;;0.10;0.10;;;20.30;57.00;;;;;;4977417;28;20039;-16
2022/05/25 04:57:19;;;;;;;0.38;0.20;;;20.30;57.20;;;;;;4977934;28;20053;-15
2022/05/25 04:59:46;;;;;;;0.32;0.30;;;20.30;57.20;;;;;;4976714;28;20460;-17
2022/05/25 05:02:12;;;;;;;0.20;0.20;;;20.30;57.10;;;;;;4977783;28;20054;-15
2022/05/25 05:04:38;;;;;;;0.43;0.20;;;20.30;57.20;;;;;;4976007;28;20492;-15
2022/05/25 05:07:04;;;;;;;0.20;0.20;;;20.30;57.00;;;;;;4977148;28;20138;-15
2022/05/25 05:09:33;;;;;;;0.10;0.10;;;20.30;57.30;;;;;;4977053;28;20500;-18
2022/05/25 05:11:59;;;;;;;0.32;0.10;;;20.30;57.70;;;;;;4957826;28;20051;-15
2022/05/25 05:14:24;;;;;;;0.10;0.10;;;20.30;57.10;;;;;;4958163;28;20043;-15
2022/05/25 05:16:57;;;;;;;0.10;0.10;;;20.30;57.30;;;;;;4976940;28;20043;-15
2022/05/25 05:19:24;;;;;;;0.20;0.20;;;20.30;56.90;;;;;;4977434;28;20046;-16
2022/05/25 05:21:50;;;;;;;0.20;0.10;;;20.30;57.00;;;;;;4975487;28;20408;-16
2022/05/25 05:24:16;;;;;;;0.20;0.20;;;20.30;57.20;;;;;;4988433;28;20483;-17
2022/05/25 05:26:42;;;;;;;0.10;0.10;;;20.30;57.30;;;;;;4957411;28;20134;-16
2022/05/25 05:29:07;;;;;;;0.40;0.40;;;20.20;57.00;;;;;;4628149;28;9999763;-17
2022/05/25 05:31:33;;;;;;;0.30;0.10;;;20.30;57.20;;;;;;4980919;28;20921;-15
2022/05/25 05:33:59;;;;;;;0.20;0.20;;;20.20;57.40;;;;;;4972841;28;20137;-15
2022/05/25 05:36:27;;;;;;;0.32;0.32;;;20.30;57.50;;;;;;4972424;28;20054;-15
2022/05/25 05:38:59;;;;;;;0.30;0.30;;;20.20;57.70;;;;;;4971359;28;20039;-15
2022/05/25 05:41:26;;;;;;;0.20;0.13;;;20.30;58.10;;;;;;4971833;28;20415;-15
2022/05/25 05:43:52;;;;;;;0.25;0.20;;;20.20;58.10;;;;;;4969897;28;20099;-15
2022/05/25 05:46:17;;;;;;;0.28;0.10;;;20.20;57.60;;;;;;4971336;28;20051;-16
2022/05/25 05:48:43;;;;;;;0.20;0.15;;;20.20;58.00;;;;;;4973447;28;20061;-15
2022/05/25 05:51:10;;;;;;;0.20;0.10;;;20.20;57.70;;;;;;4968940;28;20051;-15
2022/05/25 05:53:36;;;;;;;0.30;0.20;;;20.20;58.10;;;;;;4975809;28;20399;-15
2022/05/25 05:56:01;;;;;;;0.30;0.30;;;20.30;57.90;;;;;;4972112;28;20377;-16
2022/05/25 05:58:27;;;;;;;0.10;0.10;;;20.30;57.70;;;;;;4965066;28;20074;-16
2022/05/25 06:00:52;;;;;;;0.28;0.10;;;20.20;57.90;;;;;;4971572;28;20057;-14
2022/05/25 06:03:18;;;;;;;0.10;0.10;;;20.30;57.70;;;;;;4972943;28;20068;-15
2022/05/25 06:05:44;;;;;;;0.10;0.10;;;20.30;57.70;;;;;;4971681;28;20050;-15
2022/05/25 06:08:16;;;;;;;0.10;0.10;;;20.40;57.70;;;;;;4971684;28;20170;-15
2022/05/25 06:10:42;;;;;;;0.20;0.20;;;20.50;57.80;;;;;;4973404;28;20035;-15
2022/05/25 06:13:07;;;;;;;0.43;0.30;;;20.30;58.10;;;;;;4974580;28;20053;-15
2022/05/25 06:21:05;;;;;;;0.77;0.17;;;20.10;58.10;;;;;;4974195;28;20038;-15
2022/05/25 06:23:31;;;;;;;0.35;0.22;;;20.00;58.20;;;;;;4975476;28;20046;-14
2022/05/25 06:25:57;;;;;;;0.25;0.10;;;20.10;58.20;;;;;;4970532;28;20423;-14
2022/05/25 06:28:22;;;;;;;0.47;0.20;;;20.10;58.10;;;;;;4970302;28;20051;-14
2022/05/25 06:30:48;;;;;;;0.13;0.10;;;20.10;58.10;;;;;;4971268;28;20051;-16
2022/05/25 06:33:13;;;;;;;0.38;0.20;;;20.10;58.20;;;;;;4970138;28;20105;-16
2022/05/25 06:35:39;;;;;;;0.40;0.30;;;20.10;58.20;;;;;;4973034;28;20915;-14
2022/05/25 06:38:04;;;;;;;0.65;0.22;;;20.10;58.10;;;;;;4972593;28;20067;-14
2022/05/25 06:40:30;;;;;;;0.25;0.20;;;20.10;58.20;;;;;;4979666;28;20062;-15
2022/05/25 06:42:56;;;;;;;0.40;0.20;;;20.10;58.00;;;;;;4978069;28;20043;-16
2022/05/25 06:45:21;;;;;;;1.30;0.25;;;20.10;58.20;;;;;;4979558;28;20040;-14
2022/05/25 06:47:47;;;;;;;0.63;0.28;;;20.10;58.20;;;;;;4978996;28;20045;-15
2022/05/25 06:50:13;;;;;;;0.65;0.30;;;20.10;58.30;;;;;;4978667;28;20075;-15
2022/05/25 06:52:38;;;;;;;0.30;0.30;;;20.10;58.30;;;;;;4979459;28;20185;-16
2022/05/25 06:55:04;;;;;;;1.02;0.40;;;20.30;57.70;;;;;;4979556;28;20047;-15
2022/05/25 06:57:30;;;;;;;1.60;0.57;;;20.30;57.70;;;;;;4978880;28;20047;-15
2022/05/25 06:59:55;;;;;;;1.35;0.40;;;20.30;57.50;;;;;;4978069;28;20049;-15
2022/05/25 07:02:21;;;;;;;0.60;0.30;;;20.20;57.20;;;;;;4978370;28;20470;-15
2022/05/25 07:04:47;;;;;;;1.17;0.25;;;20.10;57.20;;;;;;4980055;28;20043;-15
2022/05/25 07:07:13;;;;;;;1.33;0.60;;;20.00;57.50;;;;;;4977780;28;20051;-15
2022/05/25 07:09:39;;;;;;;0.70;0.50;;;19.90;57.60;;;;;;4976279;28;20429;-15
2022/05/25 07:12:08;;;;;;;1.38;0.50;;;19.80;57.60;;;;;;4975366;28;20102;-15
2022/05/25 07:14:35;;;;;;;2.15;0.50;;;19.80;57.90;;;;;;4976317;28;20039;-15
2022/05/25 07:17:01;;;;;;;0.50;0.22;;;19.80;57.80;;;;;;4983592;28;20138;-15
2022/05/25 07:19:27;;;;;;;0.93;0.55;;;19.80;57.70;;;;;;4979076;28;20039;-15
2022/05/25 07:21:52;;;;;;;1.48;0.35;;;19.80;57.70;;;;;;4975100;28;20062;-16
2022/05/25 07:24:18;;;;;;;1.17;0.30;;;19.80;58.10;;;;;;4977794;28;20141;-14
2022/05/25 07:26:44;;;;;;;1.15;0.47;;;19.80;58.10;;;;;;4977422;28;20050;-15
2022/05/25 07:29:10;;;;;;;0.70;0.50;;;19.80;57.90;;;;;;4976858;28;20522;-15
2022/05/25 07:31:47;;;;;;;2.88;0.50;;;19.80;57.90;;;;;;4977591;28;20047;-15
2022/05/25 07:34:20;;;;;;;0.57;0.30;;;19.70;58.10;;;;;;4976776;28;20066;-15
2022/05/25 07:37:11;;;;;;;0.52;0.30;;;19.70;58.30;;;;;;4979363;28;20055;-15
2022/05/25 07:39:46;;;;;;;0.88;0.40;;;19.70;58.20;;;;;;4958398;28;20047;-15
2022/05/25 07:42:12;;;;;;;0.32;0.22;;;19.90;58.20;;;;;;4972145;28;20047;-17
2022/05/25 07:44:42;;;;;;;1.55;0.50;;;19.80;58.00;;;;;;4977894;28;20043;-16
2022/05/25 07:47:07;;;;;;;1.60;0.40;;;19.70;57.90;;;;;;4977564;28;20068;-14
2022/05/25 07:49:33;;;;;;;3.42;0.65;;;19.80;57.90;;;;;;4977944;28;20050;-13
2022/05/25 07:51:58;;;;;;;1.23;0.50;;;19.70;57.90;;;;;;4978051;28;20141;-14
2022/05/25 07:54:24;;;;;;;0.60;0.20;;;19.60;58.40;;;;;;4993841;28;20042;-13
2022/05/25 07:56:50;;;;;;;0.70;0.30;;;19.60;58.20;;;;;;4978357;28;20078;-16
2022/05/25 07:59:16;;;;;;;0.80;0.28;;;19.50;57.90;;;;;;4978167;28;20083;-14
2022/05/25 08:07:22;;;;;;;1.20;0.40;;;19.60;58.20;;;;;;4962616;28;20057;-14
2022/05/25 08:09:48;;;;;;;0.82;0.28;;;19.60;58.20;;;;;;4978902;28;20051;-14
2022/05/25 08:12:13;;;;;;;0.65;0.40;;;19.60;58.30;;;;;;4977612;28;20105;-14
2022/05/25 08:14:39;;;;;;;1.23;0.50;;;19.70;58.30;;;;;;4978585;28;20053;-13
2022/05/25 08:17:06;;;;;;;1.25;0.32;;;19.60;58.40;;;;;;4978143;28;20049;-15
2022/05/25 08:19:33;;;;;;;1.13;0.52;;;19.80;58.10;;;;;;4978673;28;20034;-14
2022/05/25 08:21:58;;;;;;;0.80;0.57;;;19.70;58.30;;;;;;4977180;28;20046;-14
2022/05/25 08:24:24;;;;;;;1.23;0.50;;;19.80;58.10;;;;;;4978420;28;20066;-14
2022/05/25 08:26:49;;;;;;;0.40;0.30;;;19.80;57.90;;;;;;4993654;28;20070;-14
2022/05/25 08:29:15;;;;;;;0.90;0.38;;;19.80;57.70;;;;;;5007724;28;20117;-15
2022/05/25 08:31:41;;;;;;;0.70;0.45;;;19.70;57.50;;;;;;4978415;28;20411;-15
2022/05/25 08:34:07;;;;;;;3.63;0.50;;;19.70;57.50;;;;;;4977671;28;20561;-13
2022/05/25 08:36:32;;;;;;;1.38;0.57;;;19.60;57.70;;;;;;4978424;28;20109;-14
2022/05/25 08:38:58;;;;;;;1.02;0.38;;;19.70;58.20;;;;;;4976451;28;20049;-14
2022/05/25 08:41:32;;;;;;;1.58;0.30;;;19.70;58.70;;;;;;4978106;28;20135;-15
2022/05/25 08:43:57;;;;;;;0.60;0.43;;;19.70;58.80;;;;;;4976825;28;20070;-15
2022/05/25 08:46:24;;;;;;;1.00;0.50;;;19.70;58.80;;;;;;4976838;28;20046;-14
2022/05/25 08:48:50;;;;;;;2.10;0.80;;;19.70;59.00;;;;;;4977400;28;20054;-15
2022/05/25 08:51:17;;;;;;;1.10;0.47;;;19.70;59.00;;;;;;4992296;28;20420;-15
2022/05/25 08:53:43;;;;;;;0.50;0.43;;;19.60;58.80;;;;;;4976732;28;20106;-15
2022/05/25 08:56:39;;;;;;;1.58;0.30;;;19.60;58.90;;;;;;4977028;28;20500;-15
2022/05/25 08:59:14;;;;;;;0.93;0.50;;;19.60;58.90;;;;;;4627989;28;10000442;-15
2022/05/25 09:01:57;;;;;;;1.13;0.70;;;19.60;58.80;;;;;;4972606;28;20047;-14
2022/05/25 09:04:38;;;;;;;1.70;0.30;;;19.60;58.70;;;;;;4953340;28;20047;-14
2022/05/25 09:07:15;;;;;;;2.65;0.63;;;19.60;58.70;;;;;;4970636;28;20110;-16
2022/05/25 09:09:42;;;;;;;1.20;0.25;;;19.60;58.60;;;;;;4965600;28;20515;-15
2022/05/25 09:12:11;;;;;;;1.35;0.60;;;19.70;58.50;;;;;;4626728;28;10000159;-13
2022/05/25 09:14:43;;;;;;;0.90;0.57;;;19.70;58.50;;;;;;4970375;28;20519;-14
2022/05/25 09:17:17;;;;;;;1.27;0.70;;;19.60;58.40;;;;;;4971269;28;20047;-16
2022/05/25 09:19:44;;;;;;;1.38;0.75;;;19.70;58.30;;;;;;4969152;28;20401;-14
2022/05/25 09:22:12;;;;;;;1.88;0.47;;;19.70;58.20;;;;;;4967376;28;20059;-16
2022/05/25 09:24:37;;;;;;;1.10;0.20;;;19.60;58.50;;;;;;4981084;28;20043;-13
2022/05/25 09:27:05;;;;;;;0.93;0.40;;;19.60;58.60;;;;;;4965424;28;20134;-14
2022/05/25 09:29:30;;;;;;;2.97;0.57;;;19.60;58.50;;;;;;4971078;28;20055;-16
2022/05/25 09:32:18;;;;;;;1.65;0.55;;;19.60;58.50;;;;;;4973451;28;20050;-14
2022/05/25 09:35:00;;;;;;;0.93;0.50;;;19.60;58.50;;;;;;4944554;28;20080;-14
2022/05/25 09:37:50;;;;;;;2.40;0.63;;;19.60;58.40;;;;;;4970439;28;20046;-14
2022/05/25 09:40:19;;;;;;;0.88;0.30;;;19.60;58.30;;;;;;4986461;28;20062;-14
2022/05/25 09:42:49;;;;;;;0.80;0.52;;;19.70;58.00;;;;;;4974212;28;20047;-14
2022/05/25 09:45:15;;;;;;;0.60;0.30;;;19.70;57.70;;;;;;4976665;28;20066;-14
2022/05/25 09:47:43;;;;;;;2.40;0.40;;;19.70;57.50;;;;;;4976314;28;20067;-14
2022/05/25 09:50:17;;;;;;;1.88;0.38;;;19.60;58.10;;;;;;4976438;28;20047;-13
2022/05/25 09:52:48;;;;;;;3.08;0.70;;;19.70;57.50;;;;;;4975461;28;20051;-14
2022/05/25 09:55:30;;;;;;;0.60;0.22;;;19.70;57.60;;;;;;4974741;28;20134;-15
2022/05/25 09:57:59;;;;;;;2.25;0.40;;;19.70;57.40;;;;;;4959591;28;20034;-14
2022/05/25 10:00:36;;;;;;;1.55;0.40;;;19.70;57.50;;;;;;4973584;28;20463;-15
2022/05/25 10:03:11;;;;;;;0.60;0.47;;;19.70;57.50;;;;;;4976309;28;20126;-16
2022/05/25 10:05:52;;;;;;;1.17;0.60;;;19.70;57.50;;;;;;4975340;28;20053;-15
2022/05/25 10:08:31;;;;;;;0.73;0.40;;;19.80;57.70;;;;;;4974587;28;20097;-14
2022/05/25 10:11:00;;;;;;;2.33;0.68;;;19.80;57.70;;;;;;4974558;28;20053;-14
2022/05/25 10:13:30;;;;;;;3.58;0.82;;;19.80;57.60;;;;;;4974201;28;20082;-13
2022/05/25 10:15:56;;;;;;;2.17;0.32;;;19.80;57.70;;;;;;4963827;28;20062;-13
2022/05/25 10:18:36;;;;;;;0.70;0.30;;;19.80;57.80;;;;;;4970480;28;20043;-13
2022/05/25 10:21:03;;;;;;;1.98;0.40;;;19.80;57.80;;;;;;4976780;28;20043;-12
2022/05/25 10:23:28;;;;;;;1.30;0.52;;;19.70;57.90;;;;;;4974893;28;20047;-13
2022/05/25 10:25:55;;;;;;;1.25;0.55;;;19.70;57.80;;;;;;4976581;28;20070;-13
2022/05/25 10:28:32;;;;;;;0.80;0.30;;;19.80;57.80;;;;;;4974792;28;20504;-13
2022/05/25 10:37:06;;;;;;;0.82;0.50;;;19.80;57.70;;;;;;4974979;28;20057;-13
2022/05/25 10:39:43;;;;;;;0.73;0.20;;;19.80;57.60;;;;;;4976097;28;20042;-15
2022/05/25 10:42:26;;;;;;;1.65;0.50;;;19.80;57.70;;;;;;4956656;28;20051;-13
2022/05/25 10:45:08;;;;;;;1.23;0.45;;;19.80;57.70;;;;;;4957057;28;20067;-13
2022/05/25 10:47:48;;;;;;;1.35;0.50;;;19.80;57.90;;;;;;4956505;28;20110;-13
2022/05/25 10:50:30;;;;;;;0.88;0.30;;;19.80;57.90;;;;;;4956250;28;20055;-14
2022/05/25 10:53:15;;;;;;;1.58;0.40;;;19.90;57.70;;;;;;4965415;28;20039;-15
2022/05/25 10:56:02;;;;;;;3.63;0.60;;;19.90;57.90;;;;;;4622825;28;10000943;-13
2022/05/25 10:58:56;;;;;;;1.08;0.50;;;20.10;57.70;;;;;;4958945;28;20055;-13
2022/05/25 11:01:59;;;;;;;1.27;0.65;;;20.10;57.50;;;;;;4981176;28;20042;-13
2022/05/25 11:04:55;;;;;;;1.58;0.52;;;20.00;57.40;;;;;;4970933;28;20047;-13
2022/05/25 11:07:47;;;;;;;2.05;0.35;;;20.00;57.40;;;;;;4970024;28;20047;-15
2022/05/25 11:10:36;;;;;;;1.95;0.75;;;19.90;57.60;;;;;;4982817;28;20034;-13
2022/05/25 11:13:24;;;;;;;0.88;0.40;;;20.00;57.90;;;;;;4982085;28;20519;-14
2022/05/25 11:16:10;;;;;;;2.78;0.70;;;20.10;57.90;;;;;;4952536;28;20043;-14
2022/05/25 11:18:48;;;;;;;1.88;1.02;;;20.10;58.00;;;;;;4952263;28;20866;-12
2022/05/25 11:21:51;;;;;;;1.80;1.50;;;20.10;58.00;;;;;;4967509;28;20050;-13
2022/05/25 11:24:30;;;;;;;3.42;1.67;;;20.10;58.00;;;;;;4972534;28;20058;-13
2022/05/25 11:27:27;;;;;;;1.80;1.70;;;20.10;57.70;;;;;;4976088;28;20157;-13
2022/05/25 11:30:03;;;;;;;1.83;1.40;;;20.10;57.70;;;;;;4968634;28;20058;-14
2022/05/25 11:32:34;;;;;;;3.00;1.70;;;20.20;57.50;;;;;;4972856;28;20159;-13
2022/05/25 11:35:12;;;;;;;2.97;1.80;;;20.20;57.40;;;;;;4975983;28;20134;-13
2022/05/25 11:37:56;;;;;;;1.92;1.48;;;20.20;56.90;;;;;;4974063;28;20047;-13
2022/05/25 11:40:45;;;;;;;3.28;1.10;;;20.20;57.00;;;;;;4970863;28;20540;-13
2022/05/25 11:43:32;;;;;;;0.80;0.80;;;20.20;56.70;;;;;;4970462;28;20176;-13
2022/05/25 11:46:19;;;;;;;1.75;1.10;;;20.30;56.70;;;;;;4974243;28;20046;-14
2022/05/25 11:48:58;;;;;;;1.10;1.00;;;20.30;56.60;;;;;;4974652;28;20463;-13
2022/05/25 11:51:36;;;;;;;0.70;0.50;;;20.30;56.40;;;;;;4974495;28;20043;-13
2022/05/25 11:54:07;;;;;;;1.05;0.60;;;20.30;56.50;;;;;;4979417;28;20050;-13
2022/05/25 11:56:53;;;;;;;1.52;0.80;;;20.20;56.50;;;;;;4974854;28;20404;-14
2022/05/25 11:59:46;;;;;;;0.52;0.40;;;20.20;56.50;;;;;;4973301;28;20151;-13
2022/05/25 12:02:30;;;;;;;2.10;0.60;;;20.20;56.70;;;;;;4970581;28;20404;-14
2022/05/25 12:05:20;;;;;;;0.85;0.50;;;20.20;56.90;;;;;;4973819;28;20039;-14
2022/05/25 12:08:21;;;;;;;0.65;0.45;;;20.20;56.60;;;;;;4974390;28;20038;-12
2022/05/25 12:10:54;;;;;;;2.28;0.82;;;20.30;56.70;;;;;;4970079;28;20767;-13
2022/05/25 12:14:00;;;;;;;1.10;0.40;;;20.20;56.90;;;;;;4973107;28;20503;-13
2022/05/25 12:16:33;;;;;;;1.63;0.30;;;20.30;56.70;;;;;;4932527;29;20055;-12
2022/05/25 12:19:02;;;;;;;1.55;0.50;;;20.30;56.50;;;;;;4962105;28;20050;-13
2022/05/25 12:21:35;;;;;;;1.55;0.52;;;20.30;56.50;;;;;;4974515;28;20055;-12
2022/05/25 12:24:06;;;;;;;0.53;0.30;;;20.30;56.70;;;;;;4974869;28;20062;-13
2022/05/25 12:26:32;;;;;;;1.10;0.40;;;20.30;56.70;;;;;;4972645;28;20107;-14
2022/05/25 12:29:13;;;;;;;1.08;0.50;;;20.30;56.50;;;;;;4972584;28;20047;-13
2022/05/25 12:31:39;;;;;;;2.72;0.75;;;20.30;56.70;;;;;;4973782;28;20038;-14
2022/05/25 12:34:05;;;;;;;1.80;0.32;;;20.30;56.80;;;;;;4970930;28;20054;-13
2022/05/25 12:36:31;;;;;;;1.05;0.40;;;20.30;56.80;;;;;;4980681;28;20051;-14
2022/05/25 12:38:57;;;;;;;0.80;0.50;;;20.40;56.60;;;;;;4967543;28;20095;-15
2022/05/25 12:41:33;;;;;;;1.13;0.50;;;20.30;56.60;;;;;;4976169;28;20061;-14
2022/05/25 12:48:30;;;;;;;3.00;0.50;;;20.30;56.60;;;;;;4975580;28;20074;-13
2022/05/25 12:49:55;;;;;;;0.75;0.65;;;20.30;56.90;;;;;;4976989;28;20062;-15
2022/05/25 12:52:27;;;;;;;0.80;0.40;;;20.30;57.00;;;;;;4976503;28;20039;-17
2022/05/25 12:54:53;;;;;;;1.20;0.60;;;20.30;57.00;;;;;;4975783;28;20101;-16
2022/05/25 12:57:37;;;;;;;3.08;0.70;;;20.20;57.30;;;;;;4970776;28;20107;-15
2022/05/25 13:00:40;;;;;;;0.65;0.40;;;20.30;57.30;;;;;;4973038;28;20041;-17
2022/05/25 13:03:32;;;;;;;0.20;0.20;;;20.20;57.20;;;;;;4965548;28;20058;-17
2022/05/25 13:05:59;;;;;;;1.08;0.50;;;20.20;57.20;;;;;;4975503;28;20042;-17
2022/05/25 13:08:47;;;;;;;0.47;0.43;;;20.30;57.30;;;;;;4975508;28;20087;-16
2022/05/25 13:11:29;;;;;;;1.10;0.30;;;20.30;57.20;;;;;;4973412;28;20063;-17
2022/05/25 13:13:55;;;;;;;1.17;0.70;;;20.30;57.20;;;;;;4974176;28;20051;-16
2022/05/25 13:16:40;;;;;;;0.80;0.38;;;20.30;57.10;;;;;;4975269;28;20094;-16
2022/05/25 13:19:14;;;;;;;;;;;20.30;57.20;;;;;;4971961;28;20051;-16
2022/05/25 13:22:05;;;;;;;0.82;0.38;;;20.40;57.20;;;;;;4974225;28;19913;-15
2022/05/25 13:24:58;;;;;;;0.60;0.30;;;20.40;57.10;;;;;;4968554;28;20055;-17
2022/05/25 13:27:24;;;;;;;0.40;0.28;;;20.40;57.00;;;;;;4973509;28;20475;-17
2022/05/25 13:29:49;;;;;;;2.35;0.50;;;20.50;57.00;;;;;;4974476;28;20051;-17
2022/05/25 13:32:35;;;;;;;0.88;0.50;;;20.50;57.00;;;;;;4974226;28;20078;-16
2022/05/25 13:35:28;;;;;;;0.75;0.22;;;20.50;57.00;;;;;;4972779;28;20495;-16
2022/05/25 13:37:54;;;;;;;0.40;0.20;;;20.50;56.90;;;;;;4973068;28;20053;-17